Time;durP1;ratioP1;P1;durP2;ratioP2;P2;SDS_P1;SDS_P2;PMS_P1;PMS_P2;Temp;Humidity;BMP_temperature;BMP_pressure;BME280_temperature;BME280_humidity;BME280_pressure;Samples;Min_cycle;Max_cycle;Signal;HPM_P1;HPM_P2
2022/08/27 00:00:28;;;;;;;12.70;6.20;;;;;;;;;;6171611;28;20454;-82
2022/08/27 00:03:28;;;;;;;9.20;5.40;;;;;;;;;;6171332;28;20019;-82
2022/08/27 00:06:28;;;;;;;14.33;6.53;;;;;;;;;;6152096;28;20101;-81
2022/08/27 00:09:29;;;;;;;14.73;6.27;;;;;;;;;;6154728;28;20545;-81
2022/08/27 00:12:29;;;;;;;13.30;5.90;;;;;;;;;;6153671;28;20019;-81
2022/08/27 00:15:29;;;;;;;11.03;5.77;;;;;;;;;;6152234;28;20026;-81
2022/08/27 00:18:30;;;;;;;14.63;7.47;;;;;;;;;;6166029;28;20023;-81
2022/08/27 00:21:31;;;;;;;11.43;5.10;;;;;;;;;;6152244;28;20027;-81
2022/08/27 00:24:32;;;;;;;;;;;;;;;;;;6172318;28;20121;-81
2022/08/27 00:27:32;;;;;;;10.25;6.18;;;;;;;;;;6158513;28;20321;-81
2022/08/27 00:30:32;;;;;;;11.27;6.40;;;;;;;;;;6175062;28;20038;-81
2022/08/27 00:33:32;;;;;;;11.80;5.63;;;;;;;;;;6176229;28;20097;-82
2022/08/27 00:36:32;;;;;;;10.23;5.83;;;;;;;;;;6166872;28;20014;-82
2022/08/27 00:39:33;;;;;;;12.73;6.53;;;;;;;;;;6155707;28;20015;-81
2022/08/27 00:42:33;;;;;;;9.43;5.83;;;;;;;;;;6153550;28;20034;-81
2022/08/27 00:45:39;;;;;;;13.70;6.93;;;;;;;;;;6175724;28;20026;-81
2022/08/27 00:48:39;;;;;;;13.30;6.57;;;;;;;;;;6173083;28;20030;-82
2022/08/27 00:51:39;;;;;;;14.67;6.73;;;;;;;;;;6175169;28;20034;-82
2022/08/27 00:54:40;;;;;;;12.03;6.17;;;;;;;;;;6167289;28;20034;-81
2022/08/27 00:57:41;;;;;;;12.10;6.73;;;;;;;;;;6170232;28;20027;-81
2022/08/27 01:00:42;;;;;;;;;;;;;;;;;;6155924;28;20030;-81
2022/08/27 01:03:45;;;;;;;12.57;6.18;;;;;;;;;;6175511;28;19921;-81
2022/08/27 01:06:46;;;;;;;14.63;6.10;;;;;;;;;;6156496;28;20026;-81
2022/08/27 01:09:47;;;;;;;19.00;6.67;;;;;;;;;;6152525;28;20099;-81
2022/08/27 01:12:47;;;;;;;12.48;6.20;;;;;;;;;;6151985;28;20101;-81
2022/08/27 01:15:48;;;;;;;15.60;6.50;;;;;;;;;;6155069;28;20566;-81
2022/08/27 01:18:49;;;;;;;16.03;6.80;;;;;;;;;;6157662;28;20121;-81
2022/08/27 01:21:55;;;;;;;12.37;8.00;;;;;;;;;;6173650;28;20019;-81
2022/08/27 01:24:57;;;;;;;11.80;6.60;;;;;;;;;;6150776;28;20490;-81
2022/08/27 01:27:59;;;;;;;16.70;6.75;;;;;;;;;;6174151;28;20532;-81
2022/08/27 01:30:59;;;;;;;10.55;5.95;;;;;;;;;;6148215;28;20016;-81
2022/08/27 01:34:01;;;;;;;10.83;6.53;;;;;;;;;;6172939;28;20033;-81
2022/08/27 01:37:01;;;;;;;;;;;;;;;;;;6153832;28;20077;-81
2022/08/27 01:40:03;;;;;;;13.37;7.60;;;;;;;;;;6174295;28;19910;-81
2022/08/27 01:43:03;;;;;;;15.25;6.90;;;;;;;;;;6169643;28;20027;-82
2022/08/27 01:46:03;;;;;;;13.50;6.43;;;;;;;;;;6156908;28;20023;-82
2022/08/27 01:49:04;;;;;;;15.43;6.37;;;;;;;;;;6157524;28;20478;-82
2022/08/27 01:52:04;;;;;;;15.13;6.97;;;;;;;;;;6153293;28;20026;-82
2022/08/27 01:55:07;;;;;;;13.07;7.03;;;;;;;;;;6154066;28;20390;-81
2022/08/27 01:58:07;;;;;;;11.80;6.95;;;;;;;;;;6165643;28;20106;-81
2022/08/27 02:01:10;;;;;;;12.33;6.30;;;;;;;;;;6156119;28;20030;-82
2022/08/27 02:04:10;;;;;;;15.82;8.35;;;;;;;;;;6155642;28;20049;-82
2022/08/27 02:07:11;;;;;;;16.47;6.83;;;;;;;;;;6155997;28;20471;-81
2022/08/27 02:10:14;;;;;;;16.77;7.73;;;;;;;;;;6155869;28;20045;-81
2022/08/27 02:13:15;;;;;;;14.65;7.20;;;;;;;;;;6155222;28;20088;-81
2022/08/27 02:16:15;;;;;;;13.77;7.63;;;;;;;;;;6155931;28;20027;-81
2022/08/27 02:19:15;;;;;;;12.00;6.43;;;;;;;;;;6168897;28;20442;-81
2022/08/27 02:22:15;;;;;;;11.50;6.53;;;;;;;;;;6155471;28;21737;-81
2022/08/27 02:25:18;;;;;;;16.07;8.13;;;;;;;;;;6168331;28;20093;-81
2022/08/27 02:28:18;;;;;;;13.88;6.13;;;;;;;;;;6172797;28;20033;-81
2022/08/27 02:31:18;;;;;;;11.33;5.90;;;;;;;;;;6152392;28;20015;-81
2022/08/27 02:34:19;;;;;;;11.97;6.70;;;;;;;;;;6173275;28;20031;-81
2022/08/27 02:37:19;;;;;;;15.63;7.30;;;;;;;;;;6172927;28;20019;-81
2022/08/27 02:40:21;;;;;;;10.80;5.93;;;;;;;;;;6155063;28;20541;-81
2022/08/27 02:43:21;;;;;;;;;;;;;;;;;;6150387;28;20037;-81
2022/08/27 02:46:21;;;;;;;12.57;6.55;;;;;;;;;;6155371;28;19910;-81
2022/08/27 02:49:22;;;;;;;11.98;6.97;;;;;;;;;;6155021;28;20011;-81
2022/08/27 02:52:22;;;;;;;12.50;7.30;;;;;;;;;;6172354;28;20082;-81
2022/08/27 02:55:22;;;;;;;10.85;5.68;;;;;;;;;;6172300;28;20503;-81
2022/08/27 02:58:22;;;;;;;11.10;5.70;;;;;;;;;;6167841;28;20019;-81
2022/08/27 03:01:22;;;;;;;12.70;6.83;;;;;;;;;;6155295;28;20033;-81
2022/08/27 03:04:23;;;;;;;10.05;6.57;;;;;;;;;;6172571;28;20101;-81
2022/08/27 03:07:23;;;;;;;13.03;7.37;;;;;;;;;;6173233;28;20684;-81
2022/08/27 03:10:24;;;;;;;15.53;7.27;;;;;;;;;;6156787;28;20011;-81
2022/08/27 03:13:25;;;;;;;15.40;6.83;;;;;;;;;;6163217;28;20023;-81
2022/08/27 03:16:25;;;;;;;14.03;7.27;;;;;;;;;;6154083;28;20030;-81
2022/08/27 03:19:25;;;;;;;14.30;7.20;;;;;;;;;;6155348;28;20018;-82
2022/08/27 03:22:25;;;;;;;17.97;6.80;;;;;;;;;;6171971;28;20031;-81
2022/08/27 03:25:26;;;;;;;11.10;6.53;;;;;;;;;;6164703;28;20046;-81
2022/08/27 03:28:28;;;;;;;14.17;7.93;;;;;;;;;;6166667;28;20026;-81
2022/08/27 03:31:29;;;;;;;13.75;7.03;;;;;;;;;;6170249;28;20023;-81
2022/08/27 03:34:30;;;;;;;13.03;7.23;;;;;;;;;;6152255;28;20027;-81
2022/08/27 03:37:30;;;;;;;12.27;6.73;;;;;;;;;;6171247;28;20265;-81
2022/08/27 03:40:30;;;;;;;14.63;7.40;;;;;;;;;;6169131;28;20018;-82
2022/08/27 03:43:30;;;;;;;13.70;7.23;;;;;;;;;;6154991;28;20046;-82
2022/08/27 03:46:31;;;;;;;12.07;7.00;;;;;;;;;;6171750;28;20019;-82
2022/08/27 03:49:31;;;;;;;13.93;6.30;;;;;;;;;;6166648;28;20037;-81
2022/08/27 03:52:32;;;;;;;12.23;6.43;;;;;;;;;;6154060;28;20026;-82
2022/08/27 03:55:33;;;;;;;10.68;6.75;;;;;;;;;;6153351;28;20022;-82
2022/08/27 03:58:34;;;;;;;13.77;6.67;;;;;;;;;;6165385;28;20015;-81
2022/08/27 04:01:34;;;;;;;12.63;6.60;;;;;;;;;;6173049;28;20019;-82
2022/08/27 04:04:34;;;;;;;15.97;7.70;;;;;;;;;;6162542;28;20382;-82
2022/08/27 04:07:35;;;;;;;17.37;7.20;;;;;;;;;;6157288;28;20007;-81
2022/08/27 04:10:38;;;;;;;12.20;7.33;;;;;;;;;;6156073;28;20490;-82
2022/08/27 04:13:40;;;;;;;13.60;8.50;;;;;;;;;;6163084;28;20062;-82
2022/08/27 04:16:40;;;;;;;11.10;7.33;;;;;;;;;;6179887;28;20729;-82
2022/08/27 04:19:40;;;;;;;13.67;7.30;;;;;;;;;;6173732;28;20106;-81
2022/08/27 04:22:40;;;;;;;13.10;7.13;;;;;;;;;;6160783;28;20038;-82
2022/08/27 04:25:41;;;;;;;9.27;6.03;;;;;;;;;;6179585;28;20031;-82
2022/08/27 04:28:42;;;;;;;10.80;6.90;;;;;;;;;;6170731;28;20058;-81
2022/08/27 04:31:42;;;;;;;13.70;7.13;;;;;;;;;;6160916;28;20133;-81
2022/08/27 04:34:42;;;;;;;13.37;7.30;;;;;;;;;;6161805;28;20084;-81
2022/08/27 04:37:43;;;;;;;13.27;7.03;;;;;;;;;;6159461;28;20478;-81
2022/08/27 04:44:03;;;;;;;12.88;7.60;;;;;;;;;;6177516;28;20137;-81
2022/08/27 04:47:04;;;;;;;13.93;6.65;;;;;;;;;;6179727;28;20073;-81
2022/08/27 04:50:05;;;;;;;13.70;6.83;;;;;;;;;;6161933;28;20455;-81
2022/08/27 04:53:05;;;;;;;14.93;7.70;;;;;;;;;;6151707;28;20054;-82
2022/08/27 04:56:05;;;;;;;14.15;5.70;;;;;;;;;;6158420;28;20023;-83
2022/08/27 04:59:07;;;;;;;11.17;6.97;;;;;;;;;;6178296;28;20035;-82
2022/08/27 05:02:08;;;;;;;11.13;6.63;;;;;;;;;;6178659;28;20107;-82
2022/08/27 05:05:08;;;;;;;11.93;6.97;;;;;;;;;;6179948;28;20027;-82
2022/08/27 05:08:11;;;;;;;11.10;6.07;;;;;;;;;;6157619;28;20027;-82
2022/08/27 05:11:13;;;;;;;10.57;6.50;;;;;;;;;;6155870;28;20019;-82
2022/08/27 05:14:14;;;;;;;9.13;6.00;;;;;;;;;;6157994;28;20034;-82
2022/08/27 05:17:15;;;;;;;9.55;5.80;;;;;;;;;;6175675;28;20027;-83
2022/08/27 05:20:15;;;;;;;14.20;6.27;;;;;;;;;;6175855;28;20107;-82
2022/08/27 05:23:16;;;;;;;13.33;5.80;;;;;;;;;;6157184;28;20213;-82
2022/08/27 05:26:16;;;;;;;11.30;6.40;;;;;;;;;;6176342;28;20098;-82
2022/08/27 05:29:17;;;;;;;7.43;5.13;;;;;;;;;;6152705;28;20398;-82
2022/08/27 05:32:17;;;;;;;13.47;6.47;;;;;;;;;;6171091;28;20059;-83
2022/08/27 05:35:18;;;;;;;11.18;5.65;;;;;;;;;;6151150;28;20027;-83
2022/08/27 05:38:19;;;;;;;10.07;5.35;;;;;;;;;;6175901;28;20031;-83
2022/08/27 05:41:19;;;;;;;;;;;;;;;;;;6159105;28;20478;-83
2022/08/27 05:44:19;;;;;;;11.20;6.07;;;;;;;;;;6175123;28;20416;-83
2022/08/27 05:47:20;;;;;;;;;;;;;;;;;;6176827;28;20025;-83
2022/08/27 05:50:20;;;;;;;11.07;6.10;;;;;;;;;;6158434;28;19933;-83
2022/08/27 05:53:20;;;;;;;;;;;;;;;;;;6158940;28;20046;-83
2022/08/27 05:56:21;;;;;;;14.57;6.43;;;;;;;;;;6158862;28;19913;-83
2022/08/27 06:02:41;;;;;;;13.07;6.75;;;;;;;;;;6171675;28;20035;-83
2022/08/27 06:05:41;;;;;;;;;;;;;;;;;;6162016;28;20089;-83
2022/08/27 06:08:41;;;;;;;10.80;6.70;;;;;;;;;;6165511;28;19981;-83
2022/08/27 06:11:41;;;;;;;13.10;6.53;;;;;;;;;;6151287;28;20042;-83
2022/08/27 06:14:41;;;;;;;11.87;6.50;;;;;;;;;;6171829;28;20030;-83
2022/08/27 06:17:42;;;;;;;14.13;8.10;;;;;;;;;;6165338;28;20461;-83
2022/08/27 06:20:42;;;;;;;13.30;6.60;;;;;;;;;;6151901;28;20053;-83
2022/08/27 06:23:42;;;;;;;12.87;6.63;;;;;;;;;;6164753;28;20035;-83
2022/08/27 06:26:43;;;;;;;20.27;7.60;;;;;;;;;;6150075;28;20122;-83
2022/08/27 06:29:43;;;;;;;13.30;6.93;;;;;;;;;;6167427;28;20046;-84
2022/08/27 06:32:44;;;;;;;15.52;7.38;;;;;;;;;;6170451;28;20018;-83
2022/08/27 06:35:44;;;;;;;15.07;7.95;;;;;;;;;;6153685;28;20057;-84
2022/08/27 06:38:46;;;;;;;15.27;8.07;;;;;;;;;;6159511;28;20092;-83
2022/08/27 06:41:49;;;;;;;19.52;8.27;;;;;;;;;;6166208;28;20019;-83
2022/08/27 06:44:49;;;;;;;21.25;8.15;;;;;;;;;;6143764;28;20049;-83
2022/08/27 06:47:49;;;;;;;13.67;7.47;;;;;;;;;;6147441;28;20026;-83
2022/08/27 06:50:49;;;;;;;23.97;9.07;;;;;;;;;;6161821;28;20073;-83
2022/08/27 06:53:50;;;;;;;15.68;8.82;;;;;;;;;;6163478;28;20082;-83
2022/08/27 06:56:50;;;;;;;11.63;7.70;;;;;;;;;;6149251;28;20050;-83
2022/08/27 06:59:50;;;;;;;13.55;7.72;;;;;;;;;;6171128;28;20014;-83
2022/08/27 07:02:52;;;;;;;12.73;7.63;;;;;;;;;;6152813;28;20023;-83
2022/08/27 07:05:52;;;;;;;13.07;7.18;;;;;;;;;;6165370;28;20379;-83
2022/08/27 07:08:52;;;;;;;15.90;7.30;;;;;;;;;;6164533;28;20022;-83
2022/08/27 07:11:53;;;;;;;11.97;6.87;;;;;;;;;;6154470;28;20042;-83
2022/08/27 07:14:54;;;;;;;15.23;7.30;;;;;;;;;;6173047;28;20034;-83
2022/08/27 07:17:54;;;;;;;14.80;6.17;;;;;;;;;;6156894;28;20023;-83
2022/08/27 07:20:54;;;;;;;16.13;7.27;;;;;;;;;;6176545;28;20015;-83
2022/08/27 07:23:58;;;;;;;14.83;6.07;;;;;;;;;;6175413;28;20050;-83
2022/08/27 07:26:58;;;;;;;12.35;6.13;;;;;;;;;;6158185;28;20353;-83
2022/08/27 07:29:58;;;;;;;12.63;7.57;;;;;;;;;;6158499;28;20046;-84
2022/08/27 07:32:59;;;;;;;12.10;6.87;;;;;;;;;;6175219;28;20387;-84
2022/08/27 07:35:59;;;;;;;14.70;7.03;;;;;;;;;;6156225;28;20023;-83
2022/08/27 07:38:59;;;;;;;14.10;6.63;;;;;;;;;;6174969;28;20019;-83
2022/08/27 07:45:18;;;;;;;15.13;6.88;;;;;;;;;;6158507;28;20027;-84
2022/08/27 07:48:18;;;;;;;14.30;6.40;;;;;;;;;;6163763;28;20533;-84
2022/08/27 07:51:20;;;;;;;16.70;6.40;;;;;;;;;;6167974;28;20374;-84
2022/08/27 07:54:21;;;;;;;10.88;5.90;;;;;;;;;;6170915;28;20458;-84
2022/08/27 07:57:21;;;;;;;8.82;5.63;;;;;;;;;;6167857;28;20019;-84
2022/08/27 08:00:21;;;;;;;11.50;5.87;;;;;;;;;;6173951;28;20026;-85
2022/08/27 08:03:22;;;;;;;15.27;6.40;;;;;;;;;;6173848;28;20026;-84
2022/08/27 08:06:22;;;;;;;10.87;5.83;;;;;;;;;;6170363;28;20016;-84
2022/08/27 08:09:23;;;;;;;9.27;4.93;;;;;;;;;;6172135;28;20274;-84
2022/08/27 08:12:24;;;;;;;9.98;5.15;;;;;;;;;;6154588;28;20023;-84
2022/08/27 08:15:24;;;;;;;11.75;5.53;;;;;;;;;;6180623;28;20023;-84
2022/08/27 08:18:25;;;;;;;9.27;5.60;;;;;;;;;;6179831;28;20086;-84
2022/08/27 08:21:25;;;;;;;9.95;5.70;;;;;;;;;;6157147;28;20019;-83
2022/08/27 08:24:26;;;;;;;9.43;4.93;;;;;;;;;;6172770;28;20435;-84
2022/08/27 08:27:27;;;;;;;16.07;4.60;;;;;;;;;;6172897;28;20042;-83
2022/08/27 08:30:27;;;;;;;7.00;3.90;;;;;;;;;;6172345;28;20732;-83
2022/08/27 08:33:30;;;;;;;9.93;5.30;;;;;;;;;;6165426;28;20031;-83
2022/08/27 08:36:31;;;;;;;13.38;4.82;;;;;;;;;;6154457;28;20034;-83
2022/08/27 08:39:31;;;;;;;12.23;4.53;;;;;;;;;;6169904;28;20023;-83
2022/08/27 08:42:44;;;;;;;8.73;4.40;;;;;;;;;;6172513;28;20383;-84
2022/08/27 08:45:44;;;;;;;11.73;5.20;;;;;;;;;;6168090;28;20023;-83
2022/08/27 08:48:47;;;;;;;13.37;4.63;;;;;;;;;;6150887;28;20031;-84
2022/08/27 08:51:47;;;;;;;10.27;5.10;;;;;;;;;;6165473;28;20030;-84
2022/08/27 08:54:48;;;;;;;13.83;5.13;;;;;;;;;;6165932;28;20066;-84
2022/08/27 08:57:56;;;;;;;13.82;4.75;;;;;;;;;;6173921;28;20029;-84
2022/08/27 09:00:58;;;;;;;11.25;5.15;;;;;;;;;;6175540;28;20018;-84
2022/08/27 09:04:03;;;;;;;10.27;4.72;;;;;;;;;;6175703;28;20114;-83
2022/08/27 09:07:08;;;;;;;15.75;5.25;;;;;;;;;;6150674;28;20030;-83
2022/08/27 09:10:11;;;;;;;13.48;5.28;;;;;;;;;;6153399;28;20029;-83
2022/08/27 09:13:27;;;;;;;11.88;5.13;;;;;;;;;;6153978;28;20114;-84
2022/08/27 09:16:27;;;;;;;12.75;5.57;;;;;;;;;;6153028;28;20027;-84
2022/08/27 09:19:28;;;;;;;10.97;5.80;;;;;;;;;;6149000;28;20081;-84
2022/08/27 09:22:37;;;;;;;11.60;5.97;;;;;;;;;;6151516;28;20333;-83
2022/08/27 09:25:39;;;;;;;10.73;5.63;;;;;;;;;;6168851;28;20483;-83
2022/08/27 09:31:58;;;;;;;17.35;6.55;;;;;;;;;;6165736;28;20445;-83
2022/08/27 09:34:59;;;;;;;18.83;6.80;;;;;;;;;;6186770;28;20033;-83
2022/08/27 09:38:01;;;;;;;15.82;7.53;;;;;;;;;;6180982;28;20031;-83
2022/08/27 09:41:05;;;;;;;15.18;7.20;;;;;;;;;;6163067;28;20451;-83
2022/08/27 09:44:10;;;;;;;13.55;7.07;;;;;;;;;;6161105;28;20431;-84
2022/08/27 09:47:13;;;;;;;11.13;5.97;;;;;;;;;;6180669;28;20019;-83
2022/08/27 09:50:15;;;;;;;15.18;6.97;;;;;;;;;;6175436;28;20039;-83
2022/08/27 09:53:18;;;;;;;10.88;5.72;;;;;;;;;;6159428;28;20026;-83
2022/08/27 09:56:33;;;;;;;17.88;6.93;;;;;;;;;;6155399;28;20046;-83
2022/08/27 09:59:34;;;;;;;16.38;6.88;;;;;;;;;;6155295;28;20074;-83
2022/08/27 10:02:35;;;;;;;12.63;6.82;;;;;;;;;;6177077;28;20118;-82
2022/08/27 10:05:37;;;;;;;18.67;7.90;;;;;;;;;;6152616;28;20430;-83
2022/08/27 10:08:44;;;;;;;14.35;7.55;;;;;;;;;;6174286;28;20097;-82
2022/08/27 10:11:58;;;;;;;18.17;7.10;;;;;;;;;;6157238;28;20150;-83
2022/08/27 10:15:00;;;;;;;14.57;7.40;;;;;;;;;;6152022;28;20027;-82
2022/08/27 10:18:40;;;;;;;14.48;6.82;;;;;;;;;;6153146;28;20030;-82
2022/08/27 10:21:40;;;;;;;19.13;9.35;;;;;;;;;;6054628;29;20493;-82
2022/08/27 10:24:49;;;;;;;24.45;9.30;;;;;;;;;;6037594;29;20141;-82
2022/08/27 10:28:14;;;;;;;19.67;10.00;;;;;;;;;;6176513;28;20046;-85
2022/08/27 10:31:17;;;;;;;24.48;11.30;;;;;;;;;;6171706;28;20018;-84
2022/08/27 10:34:26;;;;;;;21.08;11.15;;;;;;;;;;6178638;28;20041;-84
2022/08/27 10:37:30;;;;;;;16.67;9.52;;;;;;;;;;6159279;28;20026;-84
2022/08/27 10:40:36;;;;;;;20.45;9.48;;;;;;;;;;6153030;28;20113;-84
2022/08/27 10:43:36;;;;;;;18.17;11.02;;;;;;;;;;6172533;28;20396;-83
2022/08/27 10:46:46;;;;;;;24.23;12.45;;;;;;;;;;6176860;28;20019;-83
2022/08/27 10:49:58;;;;;;;18.85;10.05;;;;;;;;;;6155916;28;20018;-83
2022/08/27 10:53:07;;;;;;;21.45;9.20;;;;;;;;;;6171239;28;20019;-83
2022/08/27 10:56:12;;;;;;;15.70;8.30;;;;;;;;;;6158112;28;20790;-83
2022/08/27 10:59:31;;;;;;;22.55;11.27;;;;;;;;;;6171353;28;20019;-83
2022/08/27 11:02:32;;;;;;;18.17;8.80;;;;;;;;;;6174975;28;20023;-83
2022/08/27 11:05:38;;;;;;;19.30;9.50;;;;;;;;;;6158214;28;20463;-82
2022/08/27 11:08:48;;;;;;;18.02;9.75;;;;;;;;;;6168006;28;20023;-82
2022/08/27 11:11:52;;;;;;;17.43;9.03;;;;;;;;;;6150946;28;20015;-82
2022/08/27 11:14:59;;;;;;;14.45;9.32;;;;;;;;;;6156698;28;20042;-82
2022/08/27 11:18:06;;;;;;;14.82;8.68;;;;;;;;;;6150985;28;20030;-82
2022/08/27 11:21:12;;;;;;;14.95;8.25;;;;;;;;;;6175771;28;20586;-83
2022/08/27 11:24:31;;;;;;;15.48;8.80;;;;;;;;;;6153647;28;20042;-83
2022/08/27 11:27:32;;;;;;;19.65;10.45;;;;;;;;;;6173653;28;20022;-82
2022/08/27 11:30:47;;;;;;;14.48;8.43;;;;;;;;;;6149679;28;20026;-83
2022/08/27 11:34:02;;;;;;;20.83;9.40;;;;;;;;;;6156699;28;20079;-82
2022/08/27 11:37:11;;;;;;;20.48;8.52;;;;;;;;;;6160676;28;20391;-82
2022/08/27 11:40:20;;;;;;;18.90;10.02;;;;;;;;;;6158469;28;20113;-83
2022/08/27 11:43:22;;;;;;;19.42;8.23;;;;;;;;;;6157139;28;20034;-83
2022/08/27 11:46:24;;;;;;;17.13;9.43;;;;;;;;;;6153853;28;20019;-82
2022/08/27 11:49:29;;;;;;;13.63;8.23;;;;;;;;;;6139668;28;20475;-82
2022/08/27 11:52:30;;;;;;;16.67;8.93;;;;;;;;;;6161044;28;20022;-82
2022/08/27 11:55:35;;;;;;;15.95;8.60;;;;;;;;;;6153560;28;20022;-82
2022/08/27 11:58:35;;;;;;;14.55;7.80;;;;;;;;;;6150838;28;20134;-82
2022/08/27 12:01:37;;;;;;;17.97;9.57;;;;;;;;;;6155366;28;20482;-82
2022/08/27 12:04:39;;;;;;;19.63;7.22;;;;;;;;;;6171597;28;20025;-82
2022/08/27 12:07:43;;;;;;;18.58;7.55;;;;;;;;;;6151117;28;20023;-82
2022/08/27 12:11:03;;;;;;;14.02;7.25;;;;;;;;;;6169506;28;21696;-82
2022/08/27 12:14:18;;;;;;;15.23;7.00;;;;;;;;;;6169548;28;20015;-82
2022/08/27 12:17:24;;;;;;;16.63;7.35;;;;;;;;;;6151970;28;20031;-82
2022/08/27 12:20:43;;;;;;;13.68;7.72;;;;;;;;;;6166030;28;20027;-82
2022/08/27 12:24:04;;;;;;;15.82;7.30;;;;;;;;;;6141125;28;20108;-82
2022/08/27 12:27:16;;;;;;;14.35;7.28;;;;;;;;;;6124448;28;20532;-81
2022/08/27 12:30:21;;;;;;;13.48;7.07;;;;;;;;;;6157735;28;20018;-82
2022/08/27 12:33:33;;;;;;;13.95;6.43;;;;;;;;;;6159940;28;20027;-82
2022/08/27 12:36:34;;;;;;;14.98;6.90;;;;;;;;;;6175215;28;20030;-82
2022/08/27 12:39:36;;;;;;;20.25;6.60;;;;;;;;;;6155295;28;20015;-82
2022/08/27 12:42:36;;;;;;;15.75;6.85;;;;;;;;;;6176176;28;20030;-82
2022/08/27 12:45:45;;;;;;;15.77;7.90;;;;;;;;;;6176019;28;20055;-82
2022/08/27 12:48:58;;;;;;;16.03;6.67;;;;;;;;;;6176083;28;20426;-82
2022/08/27 12:52:01;;;;;;;17.60;7.35;;;;;;;;;;6173683;28;20011;-82
2022/08/27 12:55:17;;;;;;;17.58;8.63;;;;;;;;;;6175279;28;20430;-82
2022/08/27 12:58:22;;;;;;;16.00;6.95;;;;;;;;;;6142760;28;20030;-82
2022/08/27 13:01:40;;;;;;;14.95;6.47;;;;;;;;;;6176777;28;20027;-82
2022/08/27 13:04:42;;;;;;;15.18;6.88;;;;;;;;;;6153381;28;20023;-82
2022/08/27 13:07:45;;;;;;;12.73;6.72;;;;;;;;;;6158456;28;20057;-82
2022/08/27 13:10:45;;;;;;;14.15;7.40;;;;;;;;;;6175296;28;20374;-83
2022/08/27 13:13:45;;;;;;;14.18;6.45;;;;;;;;;;6174236;28;20046;-83
2022/08/27 13:16:50;;;;;;;17.00;7.07;;;;;;;;;;6158018;28;20423;-82
2022/08/27 13:20:00;;;;;;;13.10;7.35;;;;;;;;;;6175547;28;20022;-83
2022/08/27 13:23:00;;;;;;;11.70;6.30;;;;;;;;;;6158186;28;20042;-82
2022/08/27 13:26:05;;;;;;;18.20;6.40;;;;;;;;;;6157819;28;20015;-82
2022/08/27 13:29:06;;;;;;;21.25;6.65;;;;;;;;;;6171648;28;20053;-82
2022/08/27 13:32:07;;;;;;;15.88;6.63;;;;;;;;;;6171256;28;20027;-82
2022/08/27 13:35:07;;;;;;;15.82;7.30;;;;;;;;;;6173487;28;20034;-82
2022/08/27 13:38:08;;;;;;;14.90;6.70;;;;;;;;;;6156429;28;20022;-83
2022/08/27 13:41:10;;;;;;;16.67;6.47;;;;;;;;;;6157019;28;20031;-83
2022/08/27 13:44:13;;;;;;;14.10;7.07;;;;;;;;;;6174727;28;20050;-82
2022/08/27 13:47:16;;;;;;;16.42;6.72;;;;;;;;;;6157031;28;20019;-83
2022/08/27 13:50:27;;;;;;;15.95;6.72;;;;;;;;;;6159025;28;20052;-83
2022/08/27 13:56:48;;;;;;;10.52;6.88;;;;;;;;;;6174313;28;20042;-83
2022/08/27 13:59:48;;;;;;;13.17;6.20;;;;;;;;;;6158360;28;20065;-83
2022/08/27 14:02:48;;;;;;;10.27;6.60;;;;;;;;;;6145776;28;20043;-83
2022/08/27 14:05:48;;;;;;;26.57;9.63;;;;;;;;;;6152359;28;20094;-83
2022/08/27 14:08:49;;;;;;;16.73;6.60;;;;;;;;;;6158296;28;20051;-83
2022/08/27 14:12:10;;;;;;;21.27;7.75;;;;;;;;;;6176181;28;20026;-83
2022/08/27 14:15:30;;;;;;;17.13;8.85;;;;;;;;;;6158228;28;20030;-83
2022/08/27 14:18:33;;;;;;;167.52;137.50;;;;;;;;;;6154761;28;20048;-83
2022/08/27 14:21:35;;;;;;;84.70;67.88;;;;;;;;;;6174593;28;20015;-84
2022/08/27 14:24:35;;;;;;;48.33;34.03;;;;;;;;;;6175257;28;20042;-83
2022/08/27 14:27:36;;;;;;;56.13;40.33;;;;;;;;;;6169655;28;20014;-83
2022/08/27 14:30:36;;;;;;;76.57;59.20;;;;;;;;;;6165500;28;20011;-83
2022/08/27 14:33:37;;;;;;;81.27;67.47;;;;;;;;;;6150510;28;20433;-83
2022/08/27 14:36:39;;;;;;;60.08;43.83;;;;;;;;;;6168571;28;20019;-84
2022/08/27 14:39:40;;;;;;;39.42;26.88;;;;;;;;;;6166611;28;20106;-84
2022/08/27 14:42:40;;;;;;;40.65;29.80;;;;;;;;;;6161284;28;20019;-83
2022/08/27 14:45:41;;;;;;;35.47;19.90;;;;;;;;;;6172312;28;20050;-83
2022/08/27 14:48:43;;;;;;;20.05;11.15;;;;;;;;;;6170101;28;20027;-83
2022/08/27 14:51:44;;;;;;;22.98;11.52;;;;;;;;;;6152956;28;20466;-83
2022/08/27 14:54:45;;;;;;;29.80;20.38;;;;;;;;;;6155707;28;20022;-83
2022/08/27 14:57:45;;;;;;;29.30;17.30;;;;;;;;;;6172329;28;20093;-83
2022/08/27 15:00:46;;;;;;;21.30;11.25;;;;;;;;;;6170650;28;20537;-83
2022/08/27 15:03:46;;;;;;;;;;;;;;;;;;6172460;28;20161;-83
2022/08/27 15:06:46;;;;;;;18.30;11.03;;;;;;;;;;6150927;28;19914;-83
2022/08/27 15:09:47;;;;;;;14.40;7.30;;;;;;;;;;6162312;28;20046;-83
2022/08/27 15:12:47;;;;;;;;;;;;;;;;;;6152912;28;20018;-83
2022/08/27 15:15:47;;;;;;;13.27;7.28;;;;;;;;;;6168096;28;19945;-83
2022/08/27 15:18:48;;;;;;;;;;;;;;;;;;6162668;28;20023;-83
2022/08/27 15:21:50;;;;;;;12.07;7.65;;;;;;;;;;6152003;28;19921;-83
2022/08/27 15:24:52;;;;;;;12.88;6.45;;;;;;;;;;6150495;28;20027;-83
2022/08/27 15:27:52;;;;;;;10.48;5.78;;;;;;;;;;6167501;28;20011;-83
2022/08/27 15:30:52;;;;;;;16.67;7.47;;;;;;;;;;6170092;28;20019;-84
2022/08/27 15:33:52;;;;;;;11.02;6.55;;;;;;;;;;6171647;28;20025;-84
2022/08/27 15:36:53;;;;;;;9.67;5.90;;;;;;;;;;6153460;28;20113;-83
2022/08/27 15:39:53;;;;;;;17.10;7.87;;;;;;;;;;6170882;28;20042;-84
2022/08/27 15:43:05;;;;;;;16.87;7.00;;;;;;;;;;6165747;28;20027;-84
2022/08/27 15:46:05;;;;;;;14.73;6.65;;;;;;;;;;6167346;28;20014;-84
2022/08/27 15:49:06;;;;;;;11.53;7.40;;;;;;;;;;6174089;28;20022;-84
2022/08/27 15:52:09;;;;;;;17.63;11.82;;;;;;;;;;6171668;28;20489;-84
2022/08/27 15:55:12;;;;;;;33.10;18.88;;;;;;;;;;6166110;28;20062;-83
2022/08/27 15:58:12;;;;;;;26.02;15.52;;;;;;;;;;6148980;28;20109;-84
2022/08/27 16:01:19;;;;;;;25.47;14.57;;;;;;;;;;6160673;28;20020;-83
2022/08/27 16:04:20;;;;;;;16.00;8.20;;;;;;;;;;6155525;28;20031;-84
2022/08/27 16:07:20;;;;;;;16.80;8.25;;;;;;;;;;6167897;28;20049;-84
2022/08/27 16:10:21;;;;;;;12.02;7.63;;;;;;;;;;6166949;28;20035;-84
2022/08/27 16:13:23;;;;;;;16.93;9.40;;;;;;;;;;6152972;28;20113;-84
2022/08/27 16:16:26;;;;;;;24.90;13.63;;;;;;;;;;6168128;28;20053;-85
2022/08/27 16:19:26;;;;;;;21.90;13.13;;;;;;;;;;6145789;28;20023;-84
2022/08/27 16:22:27;;;;;;;21.50;14.80;;;;;;;;;;6153398;28;20066;-85
2022/08/27 16:25:27;;;;;;;20.38;11.13;;;;;;;;;;6168795;28;20434;-84
2022/08/27 16:28:27;;;;;;;30.83;16.70;;;;;;;;;;6154880;28;20063;-84
2022/08/27 16:31:28;;;;;;;41.13;22.70;;;;;;;;;;6161455;28;20021;-84
2022/08/27 16:34:29;;;;;;;49.63;28.20;;;;;;;;;;6165381;28;20414;-85
2022/08/27 16:37:29;;;;;;;35.53;22.00;;;;;;;;;;6171597;28;20023;-84
2022/08/27 16:40:32;;;;;;;33.77;20.00;;;;;;;;;;6160888;28;20019;-84
2022/08/27 16:43:32;;;;;;;26.67;15.80;;;;;;;;;;6173232;28;20034;-84
2022/08/27 16:46:33;;;;;;;24.60;12.50;;;;;;;;;;6167771;28;20094;-84
2022/08/27 16:52:52;;;;;;;19.00;8.05;;;;;;;;;;6164787;28;20027;-86
2022/08/27 16:55:52;;;;;;;14.40;7.73;;;;;;;;;;6149933;28;20049;-85
2022/08/27 16:58:52;;;;;;;18.92;7.97;;;;;;;;;;6146886;28;20078;-83
2022/08/27 17:01:53;;;;;;;14.13;6.33;;;;;;;;;;6155378;28;20046;-84
2022/08/27 17:04:54;;;;;;;12.30;7.03;;;;;;;;;;6167972;28;20521;-84
2022/08/27 17:07:54;;;;;;;21.43;7.47;;;;;;;;;;6155181;28;20047;-84
2022/08/27 17:10:55;;;;;;;14.37;8.47;;;;;;;;;;6163627;28;20094;-84
2022/08/27 17:13:57;;;;;;;17.38;7.57;;;;;;;;;;6172219;28;20278;-84
2022/08/27 17:16:57;;;;;;;14.93;8.20;;;;;;;;;;6159618;28;20022;-83
2022/08/27 17:19:57;;;;;;;14.95;8.57;;;;;;;;;;6172025;28;20081;-84
2022/08/27 17:22:59;;;;;;;12.77;7.37;;;;;;;;;;6149566;28;20050;-85
2022/08/27 17:25:59;;;;;;;;;;;;;;;;;;6151649;28;20019;-84
2022/08/27 17:28:59;;;;;;;17.20;7.70;;;;;;;;;;6148329;28;19965;-83
2022/08/27 17:32:00;;;;;;;20.60;11.53;;;;;;;;;;6134413;28;20019;-83
2022/08/27 17:35:00;;;;;;;50.67;33.03;;;;;;;;;;6143041;28;20026;-83
2022/08/27 17:38:00;;;;;;;63.13;37.63;;;;;;;;;;6139077;28;20082;-83
2022/08/27 17:41:02;;;;;;;34.33;23.93;;;;;;;;;;6143729;28;20059;-83
2022/08/27 17:44:09;;;;;;;26.55;16.38;;;;;;;;;;6141273;28;20019;-83
2022/08/27 17:47:10;;;;;;;29.98;14.18;;;;;;;;;;6136263;28;20115;-83
2022/08/27 17:50:10;;;;;;;30.15;15.77;;;;;;;;;;6147465;28;20070;-83
2022/08/27 17:53:10;;;;;;;39.10;15.97;;;;;;;;;;6144569;28;20074;-83
2022/08/27 17:56:10;;;;;;;26.40;15.03;;;;;;;;;;6147421;28;20407;-83
2022/08/27 17:59:10;;;;;;;30.98;18.40;;;;;;;;;;6145624;28;20090;-83
2022/08/27 18:02:19;;;;;;;25.47;14.90;;;;;;;;;;6148436;28;20053;-83
2022/08/27 18:05:20;;;;;;;22.27;12.82;;;;;;;;;;6149261;28;20065;-83
2022/08/27 18:08:20;;;;;;;;;;;;;;;;;;6147569;28;20031;-84
2022/08/27 18:11:20;;;;;;;13.90;8.82;;;;;;;;;;6146473;28;19907;-83
2022/08/27 18:14:21;;;;;;;19.40;8.50;;;;;;;;;;6148025;28;20023;-83
2022/08/27 18:17:21;;;;;;;18.90;8.47;;;;;;;;;;6147557;28;20027;-83
2022/08/27 18:20:22;;;;;;;14.47;7.87;;;;;;;;;;6149793;28;20028;-83